Time;durP1;ratioP1;P1;durP2;ratioP2;P2;SDS_P1;SDS_P2;PMS_P1;PMS_P2;Temp;Humidity;BMP_temperature;BMP_pressure;BME280_temperature;BME280_humidity;BME280_pressure;Samples;Min_cycle;Max_cycle;Signal;HPM_P1;HPM_P2
2022/12/10 00:00:09;;;;;;;4.85;4.45;;;20.70;69.90;;;;;;5049827;28;20202;-46
2022/12/10 00:02:35;;;;;;;5.45;3.95;;;20.70;69.90;;;;;;5042747;28;20549;-44
2022/12/10 00:05:02;;;;;;;6.82;4.20;;;20.80;69.80;;;;;;5048384;28;20249;-43
2022/12/10 00:07:29;;;;;;;5.75;4.10;;;20.80;69.80;;;;;;5047003;28;20195;-43
2022/12/10 00:09:55;;;;;;;4.13;3.63;;;20.90;69.90;;;;;;5045047;28;20196;-43
2022/12/10 00:12:22;;;;;;;4.23;3.83;;;20.90;69.80;;;;;;5040070;28;20223;-42
2022/12/10 00:14:49;;;;;;;3.83;3.50;;;20.90;69.50;;;;;;5048944;28;20457;-43
2022/12/10 00:17:17;;;;;;;3.95;3.65;;;21.00;69.50;;;;;;5042634;28;20191;-44
2022/12/10 00:19:43;;;;;;;4.43;4.03;;;21.00;69.40;;;;;;5043177;28;20322;-41
2022/12/10 00:22:10;;;;;;;3.88;3.53;;;21.10;69.40;;;;;;5049329;28;20210;-42
2022/12/10 00:24:37;;;;;;;3.40;3.10;;;21.10;69.30;;;;;;5044836;28;20195;-44
2022/12/10 00:27:03;;;;;;;4.22;3.00;;;21.10;69.30;;;;;;5051585;28;20207;-40
2022/12/10 00:29:30;;;;;;;4.15;3.05;;;21.10;69.40;;;;;;5049250;28;20682;-43
2022/12/10 00:31:57;;;;;;;3.40;3.10;;;21.10;69.50;;;;;;5043581;28;20211;-42
2022/12/10 00:34:25;;;;;;;3.40;3.10;;;21.10;69.30;;;;;;5044954;28;20248;-42
2022/12/10 00:36:51;;;;;;;2.97;2.78;;;21.10;69.20;;;;;;5051563;28;20187;-43
2022/12/10 00:39:20;;;;;;;3.40;3.10;;;21.10;69.30;;;;;;5046432;28;20674;-41
2022/12/10 00:41:48;;;;;;;3.87;3.40;;;21.00;69.30;;;;;;5047347;28;20242;-44
2022/12/10 00:44:15;;;;;;;4.38;3.88;;;21.10;69.30;;;;;;5046941;28;21038;-43
2022/12/10 00:46:41;;;;;;;3.17;2.88;;;21.00;69.40;;;;;;5039951;28;20206;-40
2022/12/10 00:49:08;;;;;;;2.97;2.78;;;20.90;69.40;;;;;;5046191;28;20202;-43
2022/12/10 00:51:36;;;;;;;3.63;3.35;;;21.00;69.50;;;;;;5051095;28;20694;-44
2022/12/10 00:54:04;;;;;;;3.55;3.25;;;21.00;69.50;;;;;;5040946;28;20206;-44
2022/12/10 00:56:33;;;;;;;3.20;2.83;;;20.90;69.40;;;;;;5043218;28;20198;-42
2022/12/10 00:59:00;;;;;;;3.13;2.92;;;20.90;69.60;;;;;;5042967;28;20191;-43
2022/12/10 01:01:31;;;;;;;3.40;3.10;;;20.90;69.80;;;;;;5034989;28;20196;-46
2022/12/10 01:04:00;;;;;;;3.30;3.10;;;20.90;69.90;;;;;;5037750;28;20196;-43
2022/12/10 01:06:29;;;;;;;3.83;3.53;;;20.80;69.90;;;;;;5040792;28;20655;-43
2022/12/10 01:09:00;;;;;;;3.30;3.00;;;20.90;69.90;;;;;;5041747;28;20191;-43
2022/12/10 01:11:29;;;;;;;4.05;2.72;;;20.80;69.90;;;;;;5043503;28;20195;-42
2022/12/10 01:13:56;;;;;;;3.15;2.95;;;20.80;70.00;;;;;;5043732;28;20660;-41
2022/12/10 01:16:24;;;;;;;2.72;2.53;;;20.80;70.90;;;;;;5034958;28;20615;-42
2022/12/10 01:18:53;;;;;;;3.05;2.85;;;20.80;70.00;;;;;;5035008;28;20198;-41
2022/12/10 01:21:20;;;;;;;2.70;2.50;;;20.80;70.10;;;;;;5031978;28;20200;-43
2022/12/10 01:23:49;;;;;;;3.22;2.92;;;20.80;70.00;;;;;;5029696;28;20187;-43
2022/12/10 01:26:19;;;;;;;3.00;2.80;;;20.90;70.00;;;;;;5031921;28;20274;-42
2022/12/10 01:28:46;;;;;;;3.10;2.53;;;20.90;70.00;;;;;;5036287;28;20210;-44
2022/12/10 01:31:16;;;;;;;3.30;3.00;;;20.90;69.90;;;;;;5042101;28;20206;-41
2022/12/10 01:33:43;;;;;;;2.72;2.53;;;20.80;69.90;;;;;;5029447;28;21012;-43
2022/12/10 01:36:12;;;;;;;3.03;2.72;;;20.90;70.00;;;;;;5031897;28;20199;-43
2022/12/10 01:38:39;;;;;;;3.75;2.50;;;20.80;70.00;;;;;;5032372;28;20206;-43
2022/12/10 01:41:07;;;;;;;2.40;2.20;;;20.80;70.00;;;;;;5030933;28;20194;-43
2022/12/10 01:46:32;;;;;;;3.20;2.88;;;20.80;69.90;;;;;;5069953;27;20639;-35
2022/12/10 01:49:01;;;;;;;2.92;2.63;;;20.90;70.00;;;;;;5063865;28;20199;-35
2022/12/10 01:51:29;;;;;;;2.72;2.53;;;20.80;70.00;;;;;;5066303;28;20558;-39
2022/12/10 01:53:57;;;;;;;2.40;2.20;;;20.90;70.10;;;;;;5068663;28;20194;-35
2022/12/10 01:56:24;;;;;;;2.58;2.35;;;20.80;70.10;;;;;;5065060;28;20188;-39
2022/12/10 01:58:53;;;;;;;2.40;2.20;;;20.80;70.10;;;;;;5073138;28;20206;-35
2022/12/10 02:01:27;;;;;;;2.60;2.40;;;20.80;70.10;;;;;;5077372;28;20457;-37
2022/12/10 02:04:05;;;;;;;4.03;2.95;;;20.80;70.00;;;;;;5082305;28;20581;-35
2022/12/10 02:06:43;;;;;;;3.27;3.00;;;20.80;69.90;;;;;;5088430;28;20192;-35
2022/12/10 02:09:19;;;;;;;2.60;2.40;;;20.80;70.00;;;;;;5084861;28;20444;-35
2022/12/10 02:11:52;;;;;;;3.08;2.88;;;20.80;70.20;;;;;;5087338;28;20191;-38
2022/12/10 02:14:28;;;;;;;2.78;2.50;;;20.80;71.00;;;;;;5088281;28;20653;-35
2022/12/10 02:16:59;;;;;;;3.23;2.90;;;20.80;70.30;;;;;;5078740;28;20195;-37
2022/12/10 02:19:42;;;;;;;2.70;2.50;;;20.70;70.20;;;;;;5070161;28;20477;-35
2022/12/10 02:22:09;;;;;;;3.03;2.78;;;20.70;70.30;;;;;;5061990;28;20195;-35
2022/12/10 02:24:37;;;;;;;3.10;2.78;;;20.70;70.30;;;;;;5050325;28;20208;-35
2022/12/10 02:27:12;;;;;;;2.65;2.45;;;20.70;70.30;;;;;;5067051;28;20202;-35
2022/12/10 02:29:44;;;;;;;2.55;2.35;;;20.80;70.40;;;;;;5059897;28;20228;-36
2022/12/10 02:32:15;;;;;;;2.75;2.55;;;20.70;70.30;;;;;;5059486;28;20221;-35
2022/12/10 02:34:44;;;;;;;2.40;2.20;;;20.70;70.30;;;;;;5059637;28;20286;-35
2022/12/10 02:37:16;;;;;;;2.70;2.50;;;20.70;70.30;;;;;;5067700;28;20559;-36
2022/12/10 02:39:48;;;;;;;2.90;2.30;;;20.70;70.30;;;;;;5065770;28;20199;-36
2022/12/10 02:42:17;;;;;;;2.83;2.63;;;20.70;70.30;;;;;;5056706;28;20195;-35
2022/12/10 02:44:48;;;;;;;2.43;2.23;;;20.70;70.30;;;;;;5062505;28;20224;-35
2022/12/10 02:47:17;;;;;;;2.60;2.40;;;20.70;70.20;;;;;;5064724;28;20458;-35
2022/12/10 02:49:47;;;;;;;2.40;2.30;;;20.70;70.10;;;;;;5059140;28;20196;-39
2022/12/10 02:52:15;;;;;;;2.80;2.50;;;20.70;70.30;;;;;;5061385;28;20199;-35
2022/12/10 02:54:44;;;;;;;3.40;3.10;;;20.70;70.30;;;;;;5060835;28;20204;-37
2022/12/10 02:57:24;;;;;;;2.55;2.35;;;20.70;70.40;;;;;;5051794;28;20199;-35
2022/12/10 03:00:09;;;;;;;2.58;2.38;;;20.70;70.20;;;;;;5047738;28;20642;-36
2022/12/10 03:02:47;;;;;;;2.90;2.70;;;20.70;70.40;;;;;;5049274;28;20191;-36
2022/12/10 03:05:19;;;;;;;2.50;2.30;;;20.60;70.20;;;;;;5047922;28;20691;-37
2022/12/10 03:07:54;;;;;;;2.83;2.63;;;20.70;70.40;;;;;;5051978;28;20196;-35
2022/12/10 03:10:27;;;;;;;2.80;2.60;;;20.70;70.30;;;;;;5042317;28;20821;-34
2022/12/10 03:12:59;;;;;;;2.50;2.25;;;20.70;70.30;;;;;;5049692;28;20197;-34
2022/12/10 03:15:30;;;;;;;2.30;2.10;;;20.70;70.30;;;;;;5046544;28;20357;-35
2022/12/10 03:17:59;;;;;;;2.65;2.42;;;20.70;70.30;;;;;;5044764;28;20739;-36
2022/12/10 03:20:27;;;;;;;4.38;2.28;;;20.70;70.30;;;;;;5047152;28;20222;-36
2022/12/10 03:22:55;;;;;;;2.58;2.38;;;20.70;70.20;;;;;;5055523;28;21805;-37
2022/12/10 03:25:24;;;;;;;2.08;1.90;;;20.70;70.30;;;;;;5048733;28;20220;-39
2022/12/10 03:27:54;;;;;;;2.97;2.78;;;20.70;70.20;;;;;;5050148;28;20204;-36
2022/12/10 03:30:21;;;;;;;2.40;2.20;;;20.70;70.20;;;;;;5046952;28;20205;-36
2022/12/10 03:32:50;;;;;;;3.10;2.53;;;20.70;70.20;;;;;;5040970;28;20196;-38
2022/12/10 03:35:18;;;;;;;2.33;2.15;;;20.70;70.10;;;;;;5045206;28;20208;-35
2022/12/10 03:37:44;;;;;;;2.85;2.65;;;20.70;70.10;;;;;;5048069;28;20644;-36
2022/12/10 03:40:13;;;;;;;2.17;1.98;;;20.70;70.10;;;;;;5050177;28;20200;-36
2022/12/10 03:42:40;;;;;;;2.85;2.65;;;20.70;70.90;;;;;;5046044;28;20287;-36
2022/12/10 03:45:07;;;;;;;2.40;2.20;;;20.70;70.10;;;;;;5041923;28;20588;-35
2022/12/10 03:47:34;;;;;;;2.75;2.55;;;20.70;70.20;;;;;;5041509;28;20198;-38
2022/12/10 03:50:03;;;;;;;2.30;2.20;;;20.70;70.30;;;;;;5045944;28;20196;-36
2022/12/10 03:52:30;;;;;;;2.30;2.10;;;20.70;71.00;;;;;;5048785;28;20223;-37
2022/12/10 03:54:56;;;;;;;2.60;2.40;;;20.70;70.10;;;;;;5048484;28;20205;-37
2022/12/10 03:57:23;;;;;;;2.45;2.15;;;20.70;70.00;;;;;;5043842;28;20659;-36
2022/12/10 03:59:50;;;;;;;2.15;1.95;;;20.70;70.00;;;;;;5047911;28;20219;-35
2022/12/10 04:02:17;;;;;;;2.45;2.25;;;20.70;70.90;;;;;;5048391;28;20211;-37
2022/12/10 04:04:43;;;;;;;2.53;2.33;;;20.70;70.10;;;;;;5047249;28;20215;-35
2022/12/10 04:07:12;;;;;;;2.42;2.22;;;20.70;70.10;;;;;;5051105;28;20233;-35
2022/12/10 04:09:39;;;;;;;3.10;2.85;;;20.70;70.20;;;;;;5047833;28;20250;-36
2022/12/10 04:12:06;;;;;;;2.35;2.15;;;20.70;70.00;;;;;;5044390;28;20203;-35
2022/12/10 04:17:17;;;;;;;2.33;2.13;;;20.70;70.00;;;;;;5042480;28;20199;-35
2022/12/10 04:19:44;;;;;;;2.83;2.63;;;20.60;70.00;;;;;;5050226;28;20307;-35
2022/12/10 04:27:46;;;;;;;2.60;2.40;;;20.50;70.40;;;;;;5004572;28;20635;-36
2022/12/10 04:30:13;;;;;;;2.00;1.90;;;20.50;70.40;;;;;;5049224;28;20195;-36
2022/12/10 04:32:40;;;;;;;2.72;2.53;;;20.50;70.40;;;;;;5045235;28;20210;-36
2022/12/10 04:35:08;;;;;;;3.10;2.17;;;20.50;70.40;;;;;;5049296;28;20212;-35
2022/12/10 04:37:36;;;;;;;1.90;1.80;;;20.50;70.40;;;;;;5041086;28;20208;-35
2022/12/10 04:40:03;;;;;;;2.22;2.03;;;20.60;70.30;;;;;;5047586;28;20208;-37
2022/12/10 04:42:30;;;;;;;2.15;1.95;;;20.60;70.20;;;;;;5049802;28;20549;-36
2022/12/10 04:44:56;;;;;;;2.17;2.08;;;20.60;70.10;;;;;;5034972;28;20200;-38
2022/12/10 04:47:23;;;;;;;2.13;1.92;;;20.70;70.10;;;;;;5037921;28;20571;-37
2022/12/10 04:49:50;;;;;;;2.50;2.30;;;20.70;70.00;;;;;;5040248;28;20196;-39
2022/12/10 04:52:17;;;;;;;2.80;2.60;;;20.70;69.90;;;;;;5044743;28;20203;-36
2022/12/10 04:54:46;;;;;;;2.20;2.00;;;20.80;69.90;;;;;;5044642;28;20671;-35
2022/12/10 04:57:13;;;;;;;2.05;1.90;;;20.80;69.90;;;;;;5052450;28;20191;-35
2022/12/10 04:59:40;;;;;;;2.20;2.00;;;20.80;69.90;;;;;;5044045;28;20719;-36
2022/12/10 05:02:07;;;;;;;2.00;1.90;;;20.80;69.80;;;;;;5036436;28;20204;-36
2022/12/10 05:04:34;;;;;;;2.25;2.03;;;20.80;69.80;;;;;;5045187;28;20544;-36
2022/12/10 05:07:01;;;;;;;2.00;1.90;;;20.80;69.80;;;;;;5045046;28;20687;-40
2022/12/10 05:09:28;;;;;;;2.63;2.17;;;20.80;70.70;;;;;;5045667;28;20465;-38
2022/12/10 05:11:56;;;;;;;2.03;1.92;;;20.80;69.80;;;;;;5046513;28;20204;-35
2022/12/10 05:14:23;;;;;;;2.30;2.10;;;20.70;69.80;;;;;;5045623;28;20234;-35
2022/12/10 05:16:51;;;;;;;1.92;1.83;;;20.80;69.90;;;;;;5039443;28;20295;-35
2022/12/10 05:19:19;;;;;;;2.25;2.05;;;20.70;69.80;;;;;;5042506;28;20222;-37
2022/12/10 05:24:30;;;;;;;2.30;2.10;;;20.70;69.90;;;;;;5042958;28;20207;-37
2022/12/10 05:26:59;;;;;;;2.00;1.90;;;20.70;70.00;;;;;;5046057;28;20219;-35
2022/12/10 05:29:26;;;;;;;2.33;2.13;;;20.70;70.00;;;;;;5041513;28;20210;-35
2022/12/10 05:31:52;;;;;;;2.10;1.90;;;20.70;70.00;;;;;;5039599;28;20203;-39
2022/12/10 05:34:19;;;;;;;2.45;2.25;;;20.60;70.00;;;;;;5046894;28;20200;-36
2022/12/10 05:36:46;;;;;;;2.30;1.95;;;20.60;70.00;;;;;;5047591;28;20408;-36
2022/12/10 05:39:12;;;;;;;2.13;1.92;;;20.60;70.10;;;;;;5043764;28;20226;-36
2022/12/10 05:41:41;;;;;;;2.25;2.05;;;20.60;70.10;;;;;;5044042;28;20207;-35
2022/12/10 05:44:10;;;;;;;2.42;2.33;;;20.60;70.10;;;;;;5039514;28;20670;-39
2022/12/10 05:46:38;;;;;;;2.10;1.90;;;20.60;70.10;;;;;;5035648;28;20557;-35
2022/12/10 05:49:06;;;;;;;1.75;1.65;;;20.70;70.10;;;;;;5049217;28;20199;-35
2022/12/10 05:51:35;;;;;;;2.00;1.85;;;20.60;70.00;;;;;;5041054;28;20198;-35
2022/12/10 05:54:04;;;;;;;2.28;2.10;;;20.60;70.10;;;;;;5045542;28;20219;-36
2022/12/10 05:56:31;;;;;;;2.40;2.20;;;20.60;70.00;;;;;;5051595;28;20251;-34
2022/12/10 05:59:01;;;;;;;1.58;1.48;;;20.60;70.10;;;;;;5045200;28;20200;-35
2022/12/10 06:01:32;;;;;;;2.13;2.00;;;20.60;70.20;;;;;;5043558;28;20204;-37
2022/12/10 06:03:59;;;;;;;1.65;1.55;;;20.60;70.10;;;;;;5049006;28;20378;-36
2022/12/10 06:06:27;;;;;;;1.90;1.80;;;20.60;70.10;;;;;;5049340;28;20219;-37
2022/12/10 06:08:54;;;;;;;1.95;1.85;;;20.60;70.20;;;;;;5041606;28;20196;-37
2022/12/10 06:11:21;;;;;;;2.30;2.10;;;20.60;70.10;;;;;;5051529;28;20203;-36
2022/12/10 06:13:48;;;;;;;1.50;1.40;;;20.60;70.20;;;;;;5047145;28;20197;-37
2022/12/10 06:16:15;;;;;;;1.65;1.55;;;20.50;70.10;;;;;;5040557;28;20228;-39
2022/12/10 06:18:43;;;;;;;1.67;1.58;;;20.60;70.20;;;;;;5045867;28;20248;-41
2022/12/10 06:21:12;;;;;;;2.17;1.98;;;20.60;70.10;;;;;;5048618;28;20203;-36
2022/12/10 06:23:40;;;;;;;2.22;1.80;;;20.60;70.00;;;;;;5045225;28;20199;-36
2022/12/10 06:26:07;;;;;;;1.90;1.80;;;20.60;70.10;;;;;;5045443;28;20208;-36
2022/12/10 06:28:34;;;;;;;1.83;1.73;;;20.60;70.20;;;;;;5044159;28;20197;-41
2022/12/10 06:31:01;;;;;;;1.75;1.65;;;20.60;70.20;;;;;;5042463;28;20195;-38
2022/12/10 06:33:28;;;;;;;1.80;1.70;;;20.60;70.30;;;;;;5044962;28;20200;-40
2022/12/10 06:35:56;;;;;;;2.00;1.88;;;20.60;70.20;;;;;;5051277;28;22411;-36
2022/12/10 06:38:23;;;;;;;1.83;1.73;;;20.60;70.20;;;;;;5046934;28;20204;-37
2022/12/10 06:40:50;;;;;;;2.03;1.85;;;20.50;70.20;;;;;;5051200;28;20192;-36
2022/12/10 06:43:17;;;;;;;1.73;1.63;;;20.50;70.20;;;;;;5046258;28;20258;-36
2022/12/10 06:45:44;;;;;;;1.80;1.70;;;20.60;70.20;;;;;;5045026;28;20715;-37
2022/12/10 06:48:11;;;;;;;1.92;1.83;;;20.60;70.20;;;;;;5048610;28;20601;-39
2022/12/10 06:50:38;;;;;;;2.25;2.05;;;20.60;70.20;;;;;;5050963;28;20200;-37
2022/12/10 06:53:06;;;;;;;2.20;2.00;;;20.60;70.10;;;;;;5052421;28;20203;-36
2022/12/10 06:55:32;;;;;;;1.85;1.73;;;20.60;70.10;;;;;;5042422;28;20203;-40
2022/12/10 06:57:59;;;;;;;2.03;1.83;;;20.60;70.20;;;;;;5042319;28;20327;-36
2022/12/10 07:00:26;;;;;;;2.10;2.00;;;20.60;70.20;;;;;;5049825;28;20211;-36
2022/12/10 07:02:53;;;;;;;2.40;2.20;;;20.60;70.20;;;;;;5045511;28;20199;-36
2022/12/10 07:05:19;;;;;;;2.15;1.80;;;20.60;70.10;;;;;;5047221;28;20208;-36
2022/12/10 07:07:46;;;;;;;1.73;1.63;;;20.60;70.10;;;;;;5051024;28;20219;-36
2022/12/10 07:10:14;;;;;;;2.33;2.13;;;20.60;70.20;;;;;;5047182;28;20208;-41
2022/12/10 07:12:41;;;;;;;1.90;1.80;;;20.60;70.10;;;;;;5045344;28;20200;-36
2022/12/10 07:15:09;;;;;;;1.60;1.50;;;20.60;69.90;;;;;;5043901;28;20192;-40
2022/12/10 07:17:35;;;;;;;2.20;1.88;;;20.60;70.00;;;;;;5045666;28;20212;-36
2022/12/10 07:20:02;;;;;;;1.95;1.85;;;20.60;69.90;;;;;;5047000;28;20253;-38
2022/12/10 07:22:29;;;;;;;1.95;1.85;;;20.60;70.00;;;;;;5049017;28;20222;-36
2022/12/10 07:24:55;;;;;;;1.90;1.80;;;20.60;70.10;;;;;;5051777;28;20200;-36
2022/12/10 07:27:24;;;;;;;1.58;1.40;;;20.60;70.00;;;;;;5049286;28;20238;-38
2022/12/10 07:29:50;;;;;;;2.00;1.80;;;20.60;70.00;;;;;;5052207;28;20196;-37
2022/12/10 07:32:17;;;;;;;1.90;1.80;;;20.50;69.90;;;;;;5040227;28;20193;-36
2022/12/10 07:34:44;;;;;;;1.83;1.73;;;20.60;70.00;;;;;;5051312;28;20575;-37
2022/12/10 07:37:11;;;;;;;2.05;1.95;;;20.60;70.10;;;;;;5055443;28;20280;-36
2022/12/10 07:39:38;;;;;;;2.03;1.83;;;20.60;70.10;;;;;;5053154;28;20587;-36
2022/12/10 07:42:04;;;;;;;2.05;1.77;;;20.50;70.00;;;;;;5043690;28;20450;-35
2022/12/10 07:44:33;;;;;;;1.60;1.50;;;20.50;70.10;;;;;;5043480;28;20204;-36
2022/12/10 07:46:59;;;;;;;2.40;2.20;;;20.50;70.20;;;;;;5045505;28;20220;-36
2022/12/10 07:49:26;;;;;;;1.63;1.52;;;20.50;70.20;;;;;;5049842;28;20667;-36
2022/12/10 07:51:53;;;;;;;1.83;1.73;;;20.50;70.00;;;;;;5047941;28;20189;-36
2022/12/10 07:54:19;;;;;;;1.75;1.65;;;20.60;70.10;;;;;;5048733;28;20204;-36
2022/12/10 07:56:46;;;;;;;1.80;1.70;;;20.50;70.00;;;;;;5046272;28;20200;-37
2022/12/10 07:59:13;;;;;;;1.80;1.60;;;20.50;70.10;;;;;;5049892;28;20595;-37
2022/12/10 08:01:41;;;;;;;1.85;1.75;;;20.50;70.10;;;;;;5040155;28;20196;-35
2022/12/10 08:04:08;;;;;;;2.20;2.00;;;20.50;70.00;;;;;;5050176;28;20212;-36
2022/12/10 08:06:35;;;;;;;1.98;1.70;;;20.50;70.10;;;;;;5048978;28;20242;-37
2022/12/10 08:09:02;;;;;;;1.90;1.52;;;20.50;70.10;;;;;;5048186;28;20191;-36
2022/12/10 08:11:29;;;;;;;1.85;1.75;;;20.50;70.10;;;;;;5044771;28;20199;-39
2022/12/10 08:13:56;;;;;;;1.95;1.80;;;20.50;70.10;;;;;;5042130;28;20600;-37
2022/12/10 08:16:26;;;;;;;1.95;1.77;;;20.50;70.10;;;;;;5038986;28;20200;-38
2022/12/10 08:18:54;;;;;;;1.73;1.52;;;20.50;70.10;;;;;;5045598;28;20195;-36
2022/12/10 08:21:23;;;;;;;1.98;1.70;;;20.50;70.40;;;;;;5045818;28;20251;-35
2022/12/10 08:23:50;;;;;;;1.98;1.80;;;20.50;70.40;;;;;;5042090;28;20218;-36
2022/12/10 08:26:19;;;;;;;1.70;1.60;;;20.50;70.10;;;;;;5043257;28;20222;-35
2022/12/10 08:28:46;;;;;;;1.88;1.60;;;20.60;70.10;;;;;;5037478;28;20204;-37
2022/12/10 08:31:14;;;;;;;1.88;1.77;;;20.60;70.10;;;;;;5038961;28;20200;-35
2022/12/10 08:33:41;;;;;;;1.95;1.85;;;20.60;70.10;;;;;;5048808;28;20207;-36
2022/12/10 08:36:12;;;;;;;1.83;1.73;;;20.60;70.00;;;;;;5048961;28;20188;-37
2022/12/10 08:38:39;;;;;;;1.75;1.65;;;20.60;70.00;;;;;;5048270;28;20214;-36
2022/12/10 08:41:10;;;;;;;1.60;1.50;;;20.60;70.00;;;;;;5041881;28;20199;-36
2022/12/10 08:43:37;;;;;;;2.17;2.05;;;20.60;70.70;;;;;;5041160;28;20209;-37
2022/12/10 08:46:04;;;;;;;2.03;1.77;;;20.60;69.90;;;;;;5040835;28;21018;-36
2022/12/10 08:48:31;;;;;;;2.10;1.90;;;20.60;70.00;;;;;;5039010;28;20188;-35
2022/12/10 08:50:58;;;;;;;1.90;1.80;;;20.60;70.00;;;;;;5039193;28;20196;-36
2022/12/10 08:53:26;;;;;;;1.95;1.85;;;20.60;69.70;;;;;;5040239;28;20207;-36
2022/12/10 08:55:53;;;;;;;1.85;1.75;;;20.70;69.80;;;;;;5040794;28;20648;-36
2022/12/10 08:58:21;;;;;;;5.35;2.00;;;20.60;69.70;;;;;;5037586;28;20209;-36
2022/12/10 09:00:49;;;;;;;1.90;1.80;;;20.60;70.00;;;;;;5039591;28;20206;-35
2022/12/10 09:03:15;;;;;;;2.72;1.70;;;20.70;70.70;;;;;;5040469;28;20208;-40
2022/12/10 09:05:43;;;;;;;2.10;1.90;;;20.80;70.50;;;;;;5038263;28;20206;-39
2022/12/10 09:08:10;;;;;;;1.88;1.77;;;20.70;70.50;;;;;;5039009;28;20228;-40
2022/12/10 09:10:39;;;;;;;3.55;1.67;;;20.70;70.70;;;;;;5038551;28;20204;-39
2022/12/10 09:13:06;;;;;;;2.05;1.80;;;20.70;70.70;;;;;;5039508;28;20195;-41
2022/12/10 09:15:33;;;;;;;1.90;1.80;;;20.70;71.00;;;;;;5048084;28;20659;-40
2022/12/10 09:17:59;;;;;;;8.93;2.05;;;20.70;71.10;;;;;;5039411;28;20209;-35
2022/12/10 09:20:26;;;;;;;1.90;1.80;;;20.60;71.20;;;;;;5039365;28;20220;-35
2022/12/10 09:22:53;;;;;;;1.48;1.38;;;20.60;71.60;;;;;;5040870;28;20537;-34
2022/12/10 09:25:21;;;;;;;1.98;1.70;;;20.60;71.60;;;;;;5039579;28;20540;-38
2022/12/10 09:27:49;;;;;;;2.00;1.80;;;20.60;71.60;;;;;;5039822;28;20965;-32
2022/12/10 09:30:16;;;;;;;2.35;2.15;;;20.50;71.80;;;;;;5040351;28;20200;-38
2022/12/10 09:32:43;;;;;;;2.00;1.80;;;20.50;71.80;;;;;;5037926;28;20196;-33
2022/12/10 09:35:10;;;;;;;4.00;1.90;;;20.40;71.80;;;;;;5040175;28;20203;-33
2022/12/10 09:37:36;;;;;;;3.22;2.10;;;20.40;72.10;;;;;;5039424;28;20570;-37
2022/12/10 09:40:04;;;;;;;2.28;2.00;;;20.40;72.30;;;;;;5033987;28;20203;-36
2022/12/10 09:42:40;;;;;;;2.85;1.98;;;20.50;72.40;;;;;;5039805;28;20192;-35
2022/12/10 09:45:18;;;;;;;2.38;2.17;;;20.50;72.10;;;;;;5038260;28;20212;-34
2022/12/10 09:47:56;;;;;;;2.38;2.17;;;20.60;72.20;;;;;;5044942;28;20222;-38
2022/12/10 09:50:27;;;;;;;2.08;1.88;;;20.60;71.90;;;;;;5046853;28;20192;-37
2022/12/10 09:52:57;;;;;;;3.05;2.58;;;20.70;72.30;;;;;;5038570;28;20223;-32
2022/12/10 09:55:31;;;;;;;2.03;1.83;;;20.70;72.30;;;;;;5036483;28;20203;-32
2022/12/10 09:57:58;;;;;;;1.58;1.48;;;20.70;72.10;;;;;;5042780;28;20217;-32
2022/12/10 10:00:33;;;;;;;2.10;1.90;;;20.80;72.10;;;;;;5043408;28;20207;-37
2022/12/10 10:03:00;;;;;;;2.35;2.15;;;20.80;72.10;;;;;;5044088;28;20203;-35
2022/12/10 10:05:30;;;;;;;1.90;1.80;;;20.80;72.10;;;;;;5048050;28;20287;-35
2022/12/10 10:08:00;;;;;;;2.15;1.95;;;20.80;72.00;;;;;;5050371;28;20212;-32
2022/12/10 10:10:29;;;;;;;2.95;1.80;;;20.80;72.00;;;;;;5053884;28;20197;-32
2022/12/10 10:13:00;;;;;;;2.15;1.95;;;20.90;72.10;;;;;;5052267;28;20195;-33
2022/12/10 10:15:33;;;;;;;1.73;1.63;;;20.90;71.90;;;;;;5052840;28;20192;-33
2022/12/10 10:18:05;;;;;;;4.15;1.50;;;20.90;71.80;;;;;;5051922;28;20229;-34
2022/12/10 10:20:32;;;;;;;2.20;1.70;;;20.90;71.80;;;;;;5052574;28;20212;-32
2022/12/10 10:23:01;;;;;;;2.00;1.90;;;20.90;71.70;;;;;;5046784;28;20231;-33
2022/12/10 10:25:28;;;;;;;1.98;1.75;;;20.80;71.60;;;;;;5043312;28;20482;-41
2022/12/10 10:27:56;;;;;;;2.42;1.80;;;20.90;71.50;;;;;;5041186;28;20243;-31
2022/12/10 10:30:24;;;;;;;2.05;1.83;;;20.90;71.40;;;;;;5041286;28;20630;-32
2022/12/10 10:32:55;;;;;;;1.77;1.60;;;20.80;71.30;;;;;;5041610;28;20207;-33
2022/12/10 10:35:28;;;;;;;3.67;1.40;;;20.80;71.20;;;;;;5041971;28;20191;-35
2022/12/10 10:38:01;;;;;;;2.10;2.00;;;20.70;71.40;;;;;;5042910;28;21669;-33
2022/12/10 10:40:30;;;;;;;1.90;1.80;;;20.70;71.40;;;;;;5043443;28;20200;-41
2022/12/10 10:42:59;;;;;;;1.40;1.30;;;20.70;71.40;;;;;;5043786;28;22723;-40
2022/12/10 10:45:36;;;;;;;1.90;1.70;;;20.70;71.40;;;;;;5039653;28;20659;-41
2022/12/10 10:48:12;;;;;;;1.63;1.52;;;20.70;71.40;;;;;;5043479;28;20218;-39
2022/12/10 10:50:40;;;;;;;1.50;1.40;;;20.60;71.30;;;;;;5050161;28;20192;-38
2022/12/10 10:53:42;;;;;;;2.75;1.60;;;20.60;71.40;;;;;;5049852;28;20193;-36
2022/12/10 10:56:16;;;;;;;2.13;1.98;;;20.60;71.50;;;;;;5016425;28;20238;-32
2022/12/10 10:58:50;;;;;;;1.60;1.50;;;20.50;71.40;;;;;;5047185;28;20317;-35
2022/12/10 11:01:17;;;;;;;1.75;1.65;;;20.50;71.60;;;;;;5042089;28;20569;-33
2022/12/10 11:03:50;;;;;;;1.90;1.70;;;20.50;71.60;;;;;;5047571;28;20254;-38
2022/12/10 11:06:17;;;;;;;1.67;1.40;;;20.50;71.60;;;;;;5056804;28;20192;-32
2022/12/10 11:08:47;;;;;;;1.70;1.60;;;20.50;71.50;;;;;;5045247;28;20606;-32
2022/12/10 11:11:20;;;;;;;2.30;2.10;;;20.60;71.50;;;;;;5045193;28;20664;-35
2022/12/10 11:13:47;;;;;;;2.13;1.73;;;20.60;71.50;;;;;;5055065;28;20539;-35
2022/12/10 11:16:19;;;;;;;1.80;1.70;;;20.60;71.50;;;;;;5048222;28;20204;-32
2022/12/10 11:18:57;;;;;;;2.17;1.35;;;20.60;71.40;;;;;;5048790;28;20684;-35
2022/12/10 11:21:24;;;;;;;2.33;1.60;;;20.60;71.30;;;;;;5044275;28;20191;-33
2022/12/10 11:23:54;;;;;;;1.63;1.30;;;20.60;71.30;;;;;;5051220;28;20196;-32
2022/12/10 11:26:51;;;;;;;2.83;1.52;;;20.60;71.20;;;;;;5044908;28;20216;-35
2022/12/10 11:29:41;;;;;;;1.58;1.48;;;20.60;71.20;;;;;;5035420;28;20570;-32
2022/12/10 11:32:22;;;;;;;1.73;1.63;;;20.60;71.20;;;;;;5036997;28;20202;-41
2022/12/10 11:35:00;;;;;;;1.90;1.50;;;20.70;71.20;;;;;;5041056;28;20192;-37
2022/12/10 11:37:33;;;;;;;1.60;1.50;;;20.70;71.10;;;;;;5047535;28;20207;-32
2022/12/10 11:40:13;;;;;;;2.20;1.73;;;20.70;71.20;;;;;;5037987;28;20196;-35
2022/12/10 11:42:50;;;;;;;1.40;1.30;;;20.70;71.20;;;;;;5031961;28;20967;-32
2022/12/10 11:45:21;;;;;;;2.00;1.73;;;20.60;71.00;;;;;;5033219;28;20207;-33
2022/12/10 11:48:04;;;;;;;2.25;1.50;;;20.70;71.00;;;;;;5034104;28;20231;-32
2022/12/10 11:50:41;;;;;;;7.32;1.70;;;20.70;71.00;;;;;;5033707;28;21976;-32
2022/12/10 11:53:25;;;;;;;5.82;1.85;;;20.70;71.70;;;;;;5028722;28;22130;-38
2022/12/10 11:56:03;;;;;;;4.95;1.88;;;20.60;72.00;;;;;;5028886;28;20192;-41
2022/12/10 11:58:53;;;;;;;2.05;1.80;;;20.70;71.70;;;;;;5032917;28;20811;-38
2022/12/10 12:01:28;;;;;;;2.35;1.75;;;20.80;71.90;;;;;;5039703;28;20195;-39
2022/12/10 12:04:23;;;;;;;1.50;1.40;;;20.80;71.90;;;;;;5041420;28;20198;-38
2022/12/10 12:07:15;;;;;;;4.63;1.65;;;20.90;71.80;;;;;;5042115;28;20335;-39
2022/12/10 12:09:55;;;;;;;1.98;1.50;;;20.90;71.90;;;;;;5040516;28;20212;-43
2022/12/10 12:12:33;;;;;;;7.10;2.28;;;20.90;72.00;;;;;;5039803;28;20208;-40
2022/12/10 12:15:04;;;;;;;2.75;1.70;;;20.90;72.00;;;;;;5055713;28;20192;-39
2022/12/10 12:17:35;;;;;;;4.45;1.80;;;20.90;71.90;;;;;;5042888;28;20204;-45
2022/12/10 12:20:05;;;;;;;11.35;1.70;;;21.00;72.10;;;;;;5042184;28;20224;-40
2022/12/10 12:22:37;;;;;;;3.63;1.75;;;21.00;72.00;;;;;;5034410;28;20211;-41
2022/12/10 12:25:09;;;;;;;1.85;1.75;;;21.00;72.90;;;;;;5044614;28;20199;-41
2022/12/10 12:27:40;;;;;;;4.25;1.80;;;20.90;72.10;;;;;;5040737;28;20220;-42
2022/12/10 12:30:15;;;;;;;2.30;1.40;;;21.00;72.10;;;;;;5042464;28;20563;-38
2022/12/10 12:32:52;;;;;;;1.88;1.65;;;21.00;72.20;;;;;;5037319;28;20208;-39
2022/12/10 12:35:22;;;;;;;1.67;1.58;;;21.00;72.20;;;;;;5042375;28;20191;-39
2022/12/10 12:37:56;;;;;;;1.80;1.70;;;21.00;72.30;;;;;;5044600;28;20195;-41
2022/12/10 12:40:29;;;;;;;1.50;1.35;;;21.00;72.30;;;;;;5038634;28;20557;-38
2022/12/10 12:43:01;;;;;;;4.32;1.60;;;21.10;72.30;;;;;;5044670;28;20284;-40
2022/12/10 12:45:34;;;;;;;2.97;1.70;;;21.00;72.30;;;;;;5044807;28;20580;-44
2022/12/10 12:48:12;;;;;;;1.50;1.40;;;21.10;72.50;;;;;;5040107;28;20218;-38
2022/12/10 12:50:44;;;;;;;1.88;1.40;;;21.00;72.50;;;;;;5048391;28;20195;-40
2022/12/10 12:53:14;;;;;;;1.73;1.50;;;21.00;72.40;;;;;;5045038;28;20201;-40
2022/12/10 12:55:50;;;;;;;1.50;1.40;;;21.10;72.60;;;;;;5044950;28;20561;-40
2022/12/10 12:58:25;;;;;;;1.73;1.63;;;21.00;72.50;;;;;;5037796;28;20204;-42
2022/12/10 13:00:56;;;;;;;1.45;1.35;;;21.10;72.60;;;;;;5044135;28;20197;-39
2022/12/10 13:03:34;;;;;;;1.50;1.40;;;21.00;72.50;;;;;;5041239;28;20198;-38
2022/12/10 13:06:17;;;;;;;1.52;1.40;;;21.00;72.70;;;;;;5035559;28;20705;-41
2022/12/10 13:08:46;;;;;;;1.60;1.50;;;20.90;72.90;;;;;;5039750;28;20297;-40
2022/12/10 13:11:20;;;;;;;1.60;1.50;;;20.90;72.70;;;;;;5040709;28;20653;-39
2022/12/10 13:14:19;;;;;;;1.70;1.60;;;20.90;72.80;;;;;;5038998;28;20623;-42